Terminal Aerodrome Forecast
Issued by NWS

Home | Current Version | Previous Version | Graphics & Text | Print | Product List | Glossary On
Versions: 1 2 3 4 5 6 7 8 9 10 11 12 13 14 15 16 17 18 19 20 21 22 23 24 25 26 27 28 29 30 31 32 33
000
FTUS43 KLOT 262059 AAA
TAFORD
TAF AMD
KORD 262059Z 2621/2724 22012KT P6SM FEW040 BKN250
     FM270300 19005KT P6SM SCT250 PROB30 2711/2714 3SM TSRA BR
      BKN035CB
     FM271400 20011KT P6SM SCT050 BKN250
     FM271700 21010KT 6SM BR VCSH BKN030 OVC050
     FM271900 20009KT 6SM BR VCTS BKN040CB=

USA.gov is the U.S. government's official web portal to all federal, state and local government web resources and services.